Time;durP1;ratioP1;P1;durP2;ratioP2;P2;SDS_P1;SDS_P2;PMS_P1;PMS_P2;Temp;Humidity;BMP_temperature;BMP_pressure;BME280_temperature;BME280_humidity;BME280_pressure;Samples;Min_cycle;Max_cycle;Signal;HPM_P1;HPM_P2
2021/04/12 00:02:47;;;;;;;11.45;6.05;;;11.60;99.90;;;;;;5064304;28;20043;-49
2021/04/12 00:06:06;;;;;;;11.18;6.05;;;11.70;99.90;;;;;;5067583;28;20047;-51
2021/04/12 00:09:17;;;;;;;9.40;5.10;;;11.70;99.90;;;;;;5065284;28;20047;-50
2021/04/12 00:12:39;;;;;;;9.73;4.85;;;11.80;99.90;;;;;;5070378;28;20051;-49
2021/04/12 00:15:46;;;;;;;7.72;5.28;;;11.80;99.90;;;;;;5067210;28;20043;-47
2021/04/12 00:18:53;;;;;;;6.07;5.35;;;11.80;99.90;;;;;;5070450;28;20509;-47
2021/04/12 00:22:15;;;;;;;9.20;4.65;;;11.80;99.90;;;;;;5073196;28;20067;-47
2021/04/12 00:25:24;;;;;;;;;;;11.80;99.90;;;;;;5070512;28;20158;-51
2021/04/12 00:28:45;;;;;;;5.93;4.20;;;11.70;99.90;;;;;;5066001;28;19924;-51
2021/04/12 00:32:12;;;;;;;5.10;3.47;;;11.80;99.90;;;;;;5065787;28;20040;-48
2021/04/12 00:35:33;;;;;;;5.78;4.22;;;11.80;99.90;;;;;;5068501;28;20058;-47
2021/04/12 00:39:01;;;;;;;5.45;3.97;;;11.80;99.90;;;;;;5066522;28;20052;-46
2021/04/12 00:42:39;;;;;;;6.15;4.45;;;11.90;99.90;;;;;;5068468;28;20411;-53
2021/04/12 00:46:00;;;;;;;7.55;4.80;;;11.90;99.90;;;;;;5071196;28;20386;-48
2021/04/12 00:49:30;;;;;;;10.90;5.30;;;12.00;99.90;;;;;;5069047;28;20050;-50
2021/04/12 00:52:55;;;;;;;7.90;5.53;;;11.90;99.90;;;;;;5056014;28;20047;-51
2021/04/12 00:56:28;;;;;;;9.38;5.75;;;11.90;99.90;;;;;;5072532;28;20044;-54
2021/04/12 00:59:50;;;;;;;10.80;6.03;;;12.00;99.90;;;;;;5081203;28;20940;-49
2021/04/12 01:03:10;;;;;;;12.23;6.22;;;12.00;99.90;;;;;;5068129;28;20051;-47
2021/04/12 01:06:48;;;;;;;12.50;6.80;;;12.00;99.90;;;;;;5072228;28;20067;-50
2021/04/12 01:10:34;;;;;;;9.95;7.13;;;12.00;99.90;;;;;;5066529;28;20067;-47
2021/04/12 01:13:56;;;;;;;16.35;6.95;;;12.00;99.90;;;;;;5014232;28;20422;-49
2021/04/12 01:17:12;;;;;;;16.08;6.93;;;12.00;99.90;;;;;;5067399;28;20063;-51
2021/04/12 01:20:35;;;;;;;16.13;7.10;;;12.00;99.90;;;;;;5061441;28;20954;-51
2021/04/12 01:23:59;;;;;;;15.77;6.50;;;12.10;99.90;;;;;;5057249;28;20056;-48
2021/04/12 01:27:12;;;;;;;16.67;7.38;;;12.10;99.90;;;;;;5060586;28;20045;-47
2021/04/12 01:30:36;;;;;;;15.10;6.75;;;12.10;99.90;;;;;;5060536;28;20047;-52
2021/04/12 01:34:01;;;;;;;19.05;8.68;;;12.00;99.90;;;;;;5044033;28;20517;-47
2021/04/12 01:38:03;;;;;;;17.17;7.97;;;12.00;99.90;;;;;;5062691;28;20040;-49
2021/04/12 01:41:25;;;;;;;18.48;9.23;;;11.90;99.90;;;;;;4995069;28;20782;-49
2021/04/12 01:44:39;;;;;;;24.33;10.93;;;11.70;99.90;;;;;;5014228;28;20068;-52
2021/04/12 01:48:07;;;;;;;21.15;10.38;;;11.50;99.90;;;;;;5063419;28;20083;-48
2021/04/12 01:51:36;;;;;;;25.75;13.57;;;11.50;99.90;;;;;;5060424;28;20047;-51
2021/04/12 01:55:03;;;;;;;18.25;13.18;;;11.30;99.90;;;;;;5059449;28;20624;-55
2021/04/12 01:58:15;;;;;;;20.55;12.70;;;11.30;99.90;;;;;;5063621;28;20094;-50
2021/04/12 02:01:44;;;;;;;25.08;13.32;;;11.30;99.90;;;;;;5062984;28;20054;-50
2021/04/12 02:05:09;;;;;;;36.40;15.55;;;11.30;99.90;;;;;;5062981;28;20509;-49
2021/04/12 02:08:38;;;;;;;32.00;16.33;;;11.30;99.90;;;;;;5060991;28;20052;-48
2021/04/12 02:12:01;;;;;;;39.35;16.05;;;11.30;99.90;;;;;;5066250;28;20055;-52
2021/04/12 02:15:15;;;;;;;39.63;17.10;;;11.30;99.90;;;;;;5063083;28;20052;-51
2021/04/12 02:18:44;;;;;;;42.53;18.15;;;11.20;99.90;;;;;;5070750;28;21022;-58
2021/04/12 02:22:16;;;;;;;32.15;17.05;;;11.20;99.90;;;;;;5065867;28;20056;-49
2021/04/12 02:25:52;;;;;;;40.90;19.88;;;11.20;99.90;;;;;;5067048;28;20412;-58
2021/04/12 02:29:36;;;;;;;52.75;21.05;;;11.20;99.90;;;;;;5071823;28;20044;-48
2021/04/12 02:32:54;;;;;;;51.47;18.27;;;11.10;99.90;;;;;;5063546;28;20048;-50
2021/04/12 02:36:22;;;;;;;48.22;18.33;;;11.20;99.90;;;;;;5076801;28;20040;-49
2021/04/12 02:39:56;;;;;;;46.42;19.30;;;11.20;99.90;;;;;;5074263;28;20414;-48
2021/04/12 02:43:20;;;;;;;40.85;18.00;;;11.20;99.90;;;;;;5075506;28;20414;-53
2021/04/12 02:46:49;;;;;;;33.75;17.10;;;11.30;99.90;;;;;;5071143;28;20063;-52
2021/04/12 02:50:30;;;;;;;42.00;20.50;;;11.20;99.90;;;;;;5067259;28;20051;-48
2021/04/12 02:53:40;;;;;;;40.35;15.93;;;11.20;99.90;;;;;;5067742;28;20043;-51
2021/04/12 02:57:10;;;;;;;36.70;18.23;;;11.30;99.90;;;;;;5069838;28;20062;-50
2021/04/12 03:00:38;;;;;;;41.08;16.10;;;11.30;99.90;;;;;;5065424;28;20043;-48
2021/04/12 03:04:10;;;;;;;42.22;16.13;;;11.20;99.90;;;;;;5065348;28;20063;-52
2021/04/12 03:07:50;;;;;;;31.00;16.00;;;11.20;99.90;;;;;;5069516;28;20048;-50
2021/04/12 03:11:34;;;;;;;47.60;17.92;;;11.10;99.90;;;;;;5067672;28;20059;-50
2021/04/12 03:15:00;;;;;;;28.33;14.55;;;11.20;99.90;;;;;;5066772;28;20043;-54
2021/04/12 03:18:10;;;;;;;25.58;14.20;;;11.20;99.90;;;;;;5072586;28;20043;-54
2021/04/12 03:21:45;;;;;;;25.85;14.98;;;11.20;99.90;;;;;;5062511;28;20048;-50
2021/04/12 03:25:16;;;;;;;28.48;13.80;;;11.10;99.90;;;;;;5066213;28;20048;-49
2021/04/12 03:28:20;;;;;;;33.60;12.82;;;11.20;99.90;;;;;;5067599;28;20055;-49
2021/04/12 03:31:43;;;;;;;26.88;14.10;;;11.20;99.90;;;;;;5065357;28;20059;-49
2021/04/12 03:35:06;;;;;;;;;;;11.20;99.90;;;;;;5066762;28;20043;-49
2021/04/12 03:38:28;;;;;;;28.35;13.18;;;11.10;99.90;;;;;;5068588;28;19934;-49
2021/04/12 03:41:58;;;;;;;25.42;12.75;;;11.10;99.90;;;;;;5070060;28;20052;-60
2021/04/12 03:45:41;;;;;;;31.77;14.05;;;11.10;99.90;;;;;;5073311;28;20456;-55
2021/04/12 03:49:04;;;;;;;33.33;15.15;;;11.10;99.90;;;;;;5070258;28;20047;-53
2021/04/12 03:52:36;;;;;;;25.30;12.95;;;11.10;99.90;;;;;;5065738;28;20050;-52
2021/04/12 03:56:07;;;;;;;24.52;14.05;;;11.10;99.90;;;;;;5066994;28;20059;-52
2021/04/12 03:59:14;;;;;;;24.50;14.57;;;11.10;99.90;;;;;;5069535;28;20044;-50
2021/04/12 04:03:03;;;;;;;24.13;13.32;;;11.10;99.90;;;;;;5063407;28;20059;-50
2021/04/12 04:06:20;;;;;;;23.80;14.20;;;11.10;99.90;;;;;;5041644;28;20048;-53
2021/04/12 04:09:50;;;;;;;30.80;15.05;;;11.10;99.90;;;;;;5069438;28;20051;-52
2021/04/12 04:13:19;;;;;;;27.63;14.48;;;11.00;99.90;;;;;;5069230;28;20055;-52
2021/04/12 04:17:11;;;;;;;23.40;13.60;;;11.00;99.90;;;;;;5068145;28;20052;-49
2021/04/12 04:20:33;;;;;;;21.88;11.43;;;10.90;99.90;;;;;;5032513;28;20493;-50
2021/04/12 04:23:59;;;;;;;23.30;11.48;;;10.90;99.90;;;;;;5028159;28;20049;-51
2021/04/12 04:27:41;;;;;;;15.57;10.35;;;10.90;99.90;;;;;;5066880;28;20039;-52
2021/04/12 04:30:54;;;;;;;14.15;10.02;;;10.80;99.90;;;;;;5063601;28;20055;-49
2021/04/12 04:34:14;;;;;;;19.05;12.27;;;10.90;99.90;;;;;;5063904;28;20047;-52
2021/04/12 04:37:44;;;;;;;20.33;10.95;;;10.70;99.90;;;;;;5061126;28;20035;-54
2021/04/12 04:41:13;;;;;;;14.70;10.13;;;10.70;99.90;;;;;;5057411;28;20431;-53
2021/04/12 04:44:35;;;;;;;15.40;9.38;;;10.70;99.90;;;;;;5059378;28;20051;-55
2021/04/12 04:48:23;;;;;;;11.95;8.13;;;10.70;99.90;;;;;;5068683;28;20048;-50
2021/04/12 04:52:05;;;;;;;11.27;7.63;;;10.80;99.90;;;;;;5056311;28;20081;-55
2021/04/12 04:55:34;;;;;;;20.13;11.50;;;10.90;99.90;;;;;;5064339;28;20048;-54
2021/04/12 04:58:56;;;;;;;15.50;10.27;;;10.70;99.90;;;;;;5068802;28;20043;-49
2021/04/12 05:02:29;;;;;;;14.25;10.55;;;10.60;99.90;;;;;;5074964;28;20051;-52
2021/04/12 05:05:36;;;;;;;;;;;10.60;99.90;;;;;;5071109;28;20415;-56
2021/04/12 05:09:03;;;;;;;15.07;7.57;;;10.60;99.90;;;;;;5063732;28;20322;-53
2021/04/12 05:12:38;;;;;;;6.88;4.32;;;10.70;99.90;;;;;;5065275;28;20051;-55
2021/04/12 05:16:19;;;;;;;6.28;4.63;;;10.80;99.90;;;;;;5068129;28;20508;-50
2021/04/12 05:19:39;;;;;;;6.97;3.70;;;10.90;99.90;;;;;;5062041;28;20043;-50
2021/04/12 05:22:59;;;;;;;15.02;4.20;;;11.00;99.90;;;;;;5060592;28;20278;-58
2021/04/12 05:26:12;;;;;;;13.15;6.80;;;10.90;99.90;;;;;;5049471;28;20040;-55
2021/04/12 05:29:57;;;;;;;8.50;5.82;;;10.70;99.90;;;;;;5052174;28;20036;-53
2021/04/12 05:33:14;;;;;;;8.80;6.50;;;10.70;99.90;;;;;;5053131;28;20024;-55
2021/04/12 05:36:55;;;;;;;7.00;4.80;;;10.70;99.90;;;;;;5051646;28;20509;-52
2021/04/12 05:40:34;;;;;;;7.72;4.45;;;10.80;99.90;;;;;;5054481;28;20410;-55
2021/04/12 05:43:48;;;;;;;7.45;4.45;;;10.80;99.90;;;;;;5061109;28;20044;-52
2021/04/12 05:47:19;;;;;;;10.98;4.93;;;10.80;99.90;;;;;;5059380;28;20048;-50
2021/04/12 05:50:54;;;;;;;5.95;4.50;;;10.80;99.90;;;;;;5053201;28;20044;-54
2021/04/12 05:54:05;;;;;;;7.28;3.83;;;10.90;99.90;;;;;;5054175;28;20501;-53
2021/04/12 05:57:44;;;;;;;7.88;4.22;;;10.90;99.90;;;;;;5051299;28;20627;-52
2021/04/12 06:01:28;;;;;;;10.80;6.07;;;10.90;99.90;;;;;;5043080;28;20040;-50
2021/04/12 06:04:45;;;;;;;10.95;7.20;;;10.70;99.90;;;;;;5052610;28;20040;-50
2021/04/12 06:08:21;;;;;;;13.27;5.88;;;10.60;99.90;;;;;;5051050;28;20399;-52
2021/04/12 06:11:46;;;;;;;11.77;6.38;;;10.60;99.90;;;;;;5055963;28;20048;-55
2021/04/12 06:15:09;;;;;;;9.70;6.18;;;10.60;99.90;;;;;;5055122;28;20053;-51
2021/04/12 06:18:31;;;;;;;8.45;6.10;;;10.60;99.90;;;;;;5056159;28;20096;-50
2021/04/12 06:21:54;;;;;;;9.55;6.25;;;10.60;99.90;;;;;;5062345;28;20043;-51
2021/04/12 06:25:16;;;;;;;11.80;6.68;;;10.60;99.90;;;;;;5057244;28;20407;-53
2021/04/12 06:29:08;;;;;;;13.48;7.85;;;10.60;99.90;;;;;;5054428;28;20051;-61
2021/04/12 06:32:50;;;;;;;9.88;6.50;;;10.60;99.90;;;;;;5016704;28;20043;-57
2021/04/12 06:36:04;;;;;;;8.77;6.03;;;10.60;99.90;;;;;;5049958;28;20036;-56
2021/04/12 06:39:46;;;;;;;11.07;6.70;;;10.70;99.90;;;;;;5055121;28;20044;-54
2021/04/12 06:43:14;;;;;;;12.77;8.07;;;10.60;99.90;;;;;;5048596;28;20561;-56
2021/04/12 06:47:01;;;;;;;12.23;7.00;;;10.60;99.90;;;;;;5049009;28;20518;-56
2021/04/12 06:50:37;;;;;;;15.23;8.00;;;10.60;99.90;;;;;;5054839;28;20040;-55
2021/04/12 06:53:44;;;;;;;13.25;7.95;;;10.60;99.90;;;;;;5054683;28;20518;-55
2021/04/12 06:56:57;;;;;;;15.13;8.38;;;10.70;99.90;;;;;;5048694;28;20059;-57
2021/04/12 07:00:48;;;;;;;14.27;8.98;;;10.70;99.90;;;;;;5051266;28;20467;-55
2021/04/12 07:04:04;;;;;;;14.50;8.25;;;10.70;99.90;;;;;;5051620;28;20410;-58
2021/04/12 07:07:46;;;;;;;12.05;7.95;;;10.70;99.90;;;;;;5055845;28;20043;-54
2021/04/12 07:11:25;;;;;;;14.38;8.02;;;10.80;99.90;;;;;;5051194;28;20039;-56
2021/04/12 07:15:21;;;;;;;13.57;7.78;;;10.80;99.90;;;;;;5052778;28;20048;-54
2021/04/12 07:18:36;;;;;;;13.95;7.95;;;10.90;99.90;;;;;;5054831;28;20043;-53
2021/04/12 07:21:52;;;;;;;11.25;7.68;;;11.00;99.90;;;;;;5054199;28;20043;-50
2021/04/12 07:25:14;;;;;;;15.20;9.65;;;11.10;99.90;;;;;;5053924;28;20044;-55
2021/04/12 07:28:40;;;;;;;18.67;9.98;;;11.20;99.90;;;;;;5054899;28;20044;-51
2021/04/12 07:32:10;;;;;;;15.15;11.07;;;11.30;99.90;;;;;;5054869;28;20043;-55
2021/04/12 07:35:27;;;;;;;16.30;11.20;;;11.30;99.90;;;;;;5053663;28;20060;-54
2021/04/12 07:38:53;;;;;;;14.20;10.10;;;11.20;99.90;;;;;;5055268;28;20044;-56
2021/04/12 07:42:35;;;;;;;11.63;7.60;;;11.30;99.90;;;;;;5055423;28;20060;-54
2021/04/12 07:46:11;;;;;;;19.10;8.52;;;11.40;99.90;;;;;;5059345;28;20039;-57
2021/04/12 07:49:40;;;;;;;12.43;6.18;;;11.50;99.90;;;;;;5057246;28;20411;-58
2021/04/12 07:53:21;;;;;;;10.05;5.00;;;11.60;99.90;;;;;;5053701;28;20052;-52
2021/04/12 07:56:53;;;;;;;8.95;4.50;;;11.70;99.90;;;;;;5068545;28;20056;-55
2021/04/12 08:00:27;;;;;;;4.45;4.00;;;11.70;99.90;;;;;;5069048;28;20061;-56
2021/04/12 08:03:45;;;;;;;4.18;2.75;;;11.70;99.90;;;;;;5057844;28;20056;-58
2021/04/12 08:07:42;;;;;;;3.17;2.10;;;11.80;99.90;;;;;;5057963;28;20047;-53
2021/04/12 08:10:58;;;;;;;4.80;2.75;;;11.90;99.90;;;;;;5066940;28;20044;-55
2021/04/12 08:14:21;;;;;;;4.18;2.78;;;12.00;99.90;;;;;;5069439;28;20040;-55
2021/04/12 08:17:55;;;;;;;4.82;2.95;;;12.00;99.90;;;;;;5061210;28;20040;-51
2021/04/12 08:21:26;;;;;;;2.83;2.33;;;12.20;99.90;;;;;;5055901;28;20029;-57
2021/04/12 08:25:16;;;;;;;2.75;2.13;;;12.30;99.90;;;;;;5070307;28;20044;-52
2021/04/12 08:28:42;;;;;;;2.95;2.33;;;12.40;99.90;;;;;;5057472;28;20182;-54
2021/04/12 08:32:05;;;;;;;5.07;1.98;;;12.50;99.90;;;;;;5057949;28;20036;-56
2021/04/12 08:35:37;;;;;;;2.85;2.53;;;12.50;99.90;;;;;;5052106;28;20033;-55
2021/04/12 08:39:17;;;;;;;2.33;1.50;;;12.50;99.90;;;;;;5057091;28;20036;-55
2021/04/12 08:42:43;;;;;;;2.80;1.75;;;12.60;99.90;;;;;;5059039;28;20033;-51
2021/04/12 08:46:25;;;;;;;4.43;3.03;;;12.40;99.90;;;;;;5052790;28;20039;-55
2021/04/12 08:49:54;;;;;;;2.78;1.92;;;12.30;99.90;;;;;;5053199;28;20044;-53
2021/04/12 08:53:23;;;;;;;3.75;2.30;;;12.10;99.90;;;;;;5050367;28;20029;-50
2021/04/12 08:57:02;;;;;;;4.53;2.17;;;12.00;99.90;;;;;;5051172;28;20044;-52
2021/04/12 09:00:48;;;;;;;6.60;2.78;;;12.00;99.90;;;;;;5052771;28;20510;-57
2021/04/12 09:04:14;;;;;;;5.68;2.28;;;12.00;99.90;;;;;;4994838;28;20535;-53
2021/04/12 09:07:52;;;;;;;3.53;1.80;;;12.00;99.90;;;;;;5050832;28;20434;-52
2021/04/12 09:11:16;;;;;;;8.37;2.27;;;12.00;99.90;;;;;;5064407;28;20421;-59
2021/04/12 09:14:58;;;;;;;5.72;2.65;;;12.00;99.90;;;;;;5063190;28;20819;-51
2021/04/12 09:18:29;;;;;;;3.47;2.30;;;11.90;99.90;;;;;;5064019;28;20521;-59
2021/04/12 09:21:52;;;;;;;4.10;2.40;;;11.80;99.90;;;;;;5053184;28;20041;-51
2021/04/12 09:25:26;;;;;;;4.45;2.88;;;11.80;99.90;;;;;;5050769;28;20052;-52
2021/04/12 09:28:45;;;;;;;5.10;2.67;;;11.80;99.90;;;;;;5065586;28;20057;-55
2021/04/12 09:32:14;;;;;;;4.45;2.15;;;11.80;99.90;;;;;;5054039;28;20538;-55
2021/04/12 09:35:24;;;;;;;3.08;2.25;;;11.80;99.90;;;;;;5054580;28;20039;-60
2021/04/12 09:38:49;;;;;;;6.50;1.95;;;12.00;99.90;;;;;;5052033;28;20074;-58
2021/04/12 09:42:18;;;;;;;3.25;2.17;;;12.10;99.90;;;;;;5053191;28;20510;-53
2021/04/12 09:45:33;;;;;;;3.17;1.63;;;12.40;99.90;;;;;;5056915;28;20406;-51
2021/04/12 09:49:02;;;;;;;2.83;1.50;;;12.40;99.90;;;;;;5049751;28;20053;-54
2021/04/12 09:52:35;;;;;;;2.03;1.77;;;12.60;99.90;;;;;;5051250;28;20050;-59
2021/04/12 09:55:59;;;;;;;2.08;1.30;;;12.70;99.90;;;;;;5052181;28;20036;-55
2021/04/12 09:59:10;;;;;;;1.08;0.98;;;12.80;99.90;;;;;;5052564;28;20044;-51
2021/04/12 10:02:26;;;;;;;1.60;1.00;;;12.80;99.90;;;;;;5054294;28;20040;-52
2021/04/12 10:05:30;;;;;;;1.50;1.40;;;12.70;99.90;;;;;;5057623;28;20051;-51
2021/04/12 10:08:44;;;;;;;0.85;0.85;;;12.70;99.90;;;;;;5052261;28;20052;-52
2021/04/12 10:11:54;;;;;;;2.60;1.30;;;12.80;99.90;;;;;;5067489;28;20051;-51
2021/04/12 10:15:35;;;;;;;2.90;1.63;;;12.80;99.90;;;;;;5061454;28;20039;-51
2021/04/12 10:18:45;;;;;;;1.70;1.45;;;12.60;99.90;;;;;;5054359;28;20535;-51
2021/04/12 10:21:56;;;;;;;2.38;1.80;;;12.40;99.90;;;;;;5053101;28;20047;-54
2021/04/12 10:25:15;;;;;;;2.10;1.90;;;12.30;99.90;;;;;;5055324;28;20518;-52
2021/04/12 10:28:27;;;;;;;3.08;2.65;;;12.30;99.90;;;;;;5048902;28;20059;-52
2021/04/12 10:31:35;;;;;;;3.60;3.10;;;12.30;99.90;;;;;;5055828;28;20044;-55
2021/04/12 10:34:47;;;;;;;4.25;3.72;;;12.30;99.90;;;;;;5052609;28;20047;-57
2021/04/12 10:38:11;;;;;;;7.43;4.28;;;12.20;99.90;;;;;;5058222;28;20107;-50
2021/04/12 10:41:36;;;;;;;10.48;6.20;;;12.10;99.90;;;;;;5064907;28;20051;-52
2021/04/12 10:45:02;;;;;;;9.63;7.28;;;12.00;99.90;;;;;;5058215;28;20526;-53
2021/04/12 10:48:15;;;;;;;18.13;14.40;;;12.00;99.90;;;;;;5069072;28;20040;-58
2021/04/12 10:51:41;;;;;;;10.80;7.18;;;11.90;99.90;;;;;;5061201;28;20051;-53
2021/04/12 10:55:17;;;;;;;8.52;6.38;;;11.80;99.90;;;;;;5067071;28;20096;-54
2021/04/12 10:58:27;;;;;;;12.07;8.43;;;11.80;99.90;;;;;;5062197;28;20044;-52
2021/04/12 11:01:47;;;;;;;14.52;8.27;;;11.80;99.90;;;;;;5069667;28;20528;-54
2021/04/12 11:05:13;;;;;;;12.23;8.20;;;11.80;99.90;;;;;;5058311;28;20048;-50
2021/04/12 11:08:29;;;;;;;17.83;9.38;;;11.80;99.90;;;;;;5056860;28;20039;-52
2021/04/12 11:11:53;;;;;;;13.20;8.82;;;11.80;99.90;;;;;;5056559;28;20043;-51
2021/04/12 11:15:13;;;;;;;33.05;22.85;;;11.80;99.90;;;;;;5054852;28;20403;-55
2021/04/12 11:18:51;;;;;;;14.98;8.07;;;11.80;99.90;;;;;;5053784;28;20039;-54
2021/04/12 11:22:07;;;;;;;15.57;9.10;;;11.70;99.90;;;;;;5068437;28;20044;-56
2021/04/12 11:25:12;;;;;;;16.67;10.10;;;11.60;99.90;;;;;;5056228;28;20039;-54
2021/04/12 11:28:34;;;;;;;12.27;7.63;;;11.50;99.90;;;;;;5057409;28;20032;-53
2021/04/12 11:31:54;;;;;;;14.15;8.80;;;11.40;99.90;;;;;;5054880;28;20051;-59
2021/04/12 11:35:15;;;;;;;15.38;10.00;;;11.30;99.90;;;;;;5056289;28;20051;-58
2021/04/12 11:38:31;;;;;;;24.48;18.13;;;11.30;99.90;;;;;;5064957;28;20047;-54
2021/04/12 11:41:53;;;;;;;18.80;11.98;;;11.30;99.90;;;;;;5069457;28;20577;-54
2021/04/12 11:45:15;;;;;;;17.23;11.25;;;11.40;99.90;;;;;;5066141;28;20047;-58
2021/04/12 11:48:30;;;;;;;;;;;11.30;99.90;;;;;;5066885;28;20572;-56
2021/04/12 11:52:17;;;;;;;15.80;8.90;;;11.40;99.90;;;;;;5065775;28;19939;-58
2021/04/12 11:55:44;;;;;;;17.15;10.77;;;11.50;99.90;;;;;;5064150;28;20102;-57
2021/04/12 11:58:55;;;;;;;18.50;10.23;;;11.50;99.90;;;;;;5062616;28;20670;-54
2021/04/12 12:02:23;;;;;;;21.33;11.20;;;11.50;99.90;;;;;;5062696;28;20043;-52
2021/04/12 12:05:37;;;;;;;15.45;9.13;;;11.50;99.90;;;;;;5067073;28;20278;-51
2021/04/12 12:09:13;;;;;;;21.30;10.98;;;11.50;99.90;;;;;;5066952;28;20059;-60
2021/04/12 12:12:38;;;;;;;19.75;11.15;;;11.60;99.90;;;;;;5073836;28;20419;-53
2021/04/12 12:16:14;;;;;;;14.45;9.48;;;11.60;99.90;;;;;;5072082;28;20044;-51
2021/04/12 12:19:23;;;;;;;16.70;8.82;;;11.60;99.90;;;;;;5076042;28;20039;-52
2021/04/12 12:22:51;;;;;;;19.17;11.40;;;11.60;99.90;;;;;;5055467;28;20048;-51
2021/04/12 12:26:01;;;;;;;24.52;14.35;;;11.60;99.90;;;;;;5064670;28;20415;-52
2021/04/12 12:29:14;;;;;;;44.50;28.40;;;11.70;99.90;;;;;;5057334;28;20048;-51
2021/04/12 12:32:32;;;;;;;13.45;8.10;;;11.70;99.90;;;;;;5051406;28;20040;-50
2021/04/12 12:35:58;;;;;;;9.90;7.47;;;11.70;99.90;;;;;;5058937;28;20521;-56
2021/04/12 12:39:37;;;;;;;12.98;10.73;;;11.80;99.90;;;;;;5068729;28;20035;-56
2021/04/12 12:42:46;;;;;;;15.07;9.48;;;11.70;99.90;;;;;;5065282;28;20059;-54
2021/04/12 12:45:51;;;;;;;18.58;11.82;;;11.80;99.90;;;;;;5064568;28;20047;-54
2021/04/12 12:49:13;;;;;;;13.90;8.27;;;11.90;99.90;;;;;;5067160;28;20047;-52
2021/04/12 12:52:58;;;;;;;23.97;15.57;;;11.90;99.90;;;;;;5068769;28;20044;-53
2021/04/12 12:56:06;;;;;;;22.08;14.43;;;11.90;99.90;;;;;;5051768;28;20297;-55
2021/04/12 12:59:20;;;;;;;12.15;8.00;;;11.80;99.90;;;;;;5072752;28;20135;-54
2021/04/12 13:02:25;;;;;;;8.60;6.28;;;11.90;99.90;;;;;;5061861;28;20043;-50
2021/04/12 13:05:36;;;;;;;11.63;7.55;;;11.90;99.90;;;;;;5065993;28;20386;-53
2021/04/12 13:08:52;;;;;;;16.75;8.85;;;11.80;99.90;;;;;;5057806;28;20040;-58
2021/04/12 13:12:12;;;;;;;8.82;6.38;;;11.80;99.90;;;;;;5060561;28;20056;-55
2021/04/12 13:15:33;;;;;;;12.50;7.05;;;11.70;99.90;;;;;;5063291;28;20044;-53
2021/04/12 13:18:39;;;;;;;13.23;7.93;;;11.70;99.90;;;;;;5051450;28;20036;-52
2021/04/12 13:21:51;;;;;;;11.15;6.20;;;11.60;99.90;;;;;;5050743;28;20517;-55
2021/04/12 13:25:30;;;;;;;13.55;8.93;;;11.60;99.90;;;;;;5054854;28;20048;-53
2021/04/12 13:28:42;;;;;;;20.90;7.75;;;11.50;99.90;;;;;;5065301;28;20047;-52
2021/04/12 13:32:07;;;;;;;;;;;11.50;99.90;;;;;;5052681;28;20044;-57
2021/04/12 13:35:15;;;;;;;11.35;6.95;;;11.40;99.90;;;;;;5056635;28;19923;-56
2021/04/12 13:38:27;;;;;;;44.63;24.63;;;11.50;99.90;;;;;;5068506;28;20044;-53
2021/04/12 13:41:51;;;;;;;10.05;7.55;;;11.50;99.90;;;;;;5043545;28;20060;-55
2021/04/12 13:54:18;;;;;;;6.22;4.72;;;11.50;99.90;;;;;;5066406;28;20075;-56
2021/04/12 13:57:29;;;;;;;4.88;3.85;;;11.60;99.90;;;;;;5070125;28;20047;-57
2021/04/12 14:00:45;;;;;;;18.30;13.70;;;11.60;99.90;;;;;;5072019;28;20043;-55
2021/04/12 14:04:04;;;;;;;19.48;15.88;;;11.60;99.90;;;;;;5065403;28;20920;-56
2021/04/12 14:07:16;;;;;;;9.95;5.13;;;11.60;99.90;;;;;;5073471;28;20043;-54
2021/04/12 14:10:29;;;;;;;10.00;6.40;;;11.60;99.90;;;;;;5059872;28;20044;-57
2021/04/12 14:13:39;;;;;;;19.83;12.07;;;11.70;99.90;;;;;;5058756;28;20537;-57
2021/04/12 14:16:44;;;;;;;12.00;7.30;;;11.70;99.90;;;;;;5048413;28;20048;-56
2021/04/12 14:20:23;;;;;;;11.63;8.15;;;11.70;99.90;;;;;;5062203;28;20048;-56
2021/04/12 14:23:32;;;;;;;10.55;7.00;;;11.70;99.90;;;;;;5073047;28;20043;-55
2021/04/12 14:27:08;;;;;;;9.95;6.45;;;11.70;99.90;;;;;;5059056;28;20061;-58
2021/04/12 14:30:17;;;;;;;22.92;7.55;;;11.70;99.90;;;;;;5054101;28;20044;-53
2021/04/12 14:33:24;;;;;;;22.05;12.27;;;11.70;99.90;;;;;;5055338;28;20517;-56
2021/04/12 14:36:32;;;;;;;10.13;6.57;;;11.70;99.90;;;;;;5055554;28;20063;-60
2021/04/12 14:39:36;;;;;;;26.27;15.82;;;11.70;99.90;;;;;;5054097;28;20060;-55
2021/04/12 14:43:28;;;;;;;13.00;7.55;;;11.80;99.90;;;;;;5050730;28;20064;-56
2021/04/12 14:46:53;;;;;;;9.70;6.50;;;11.80;99.90;;;;;;5051441;28;20048;-55
2021/04/12 14:50:13;;;;;;;13.90;6.53;;;12.00;99.90;;;;;;5060517;28;20047;-60
2021/04/12 14:53:29;;;;;;;12.35;6.07;;;12.10;99.90;;;;;;5054514;28;20039;-55
2021/04/12 14:56:43;;;;;;;15.32;6.72;;;12.10;99.90;;;;;;5051226;28;20067;-53
2021/04/12 14:59:58;;;;;;;11.80;6.25;;;12.20;99.90;;;;;;5060123;28;20044;-59
2021/04/12 15:03:18;;;;;;;15.55;7.10;;;12.20;99.90;;;;;;5055681;28;20035;-62
2021/04/12 15:06:50;;;;;;;13.38;5.82;;;12.20;99.90;;;;;;5058788;28;20047;-62
2021/04/12 15:10:09;;;;;;;11.25;6.65;;;12.20;99.90;;;;;;5050532;28;20510;-62
2021/04/12 15:13:30;;;;;;;19.02;7.25;;;12.20;99.90;;;;;;5057812;28;20039;-61
2021/04/12 15:16:53;;;;;;;12.52;6.90;;;12.10;99.90;;;;;;5060418;28;20502;-61
2021/04/12 15:29:49;;;;;;;16.48;7.43;;;12.00;99.90;;;;;;5058772;28;20509;-65
2021/04/12 15:33:06;;;;;;;19.38;8.05;;;12.00;99.90;;;;;;5065605;28;20402;-59
2021/04/12 15:36:36;;;;;;;19.98;8.45;;;12.00;99.90;;;;;;5073282;28;20046;-61
2021/04/12 15:44:08;;;;;;;24.45;10.98;;;12.00;99.90;;;;;;5077243;28;20046;-63
2021/04/12 15:47:34;;;;;;;34.28;11.80;;;12.00;99.90;;;;;;5064400;28;20051;-60
2021/04/12 15:50:55;;;;;;;21.48;11.68;;;12.00;99.90;;;;;;5077550;28;20047;-58
2021/04/12 15:54:05;;;;;;;25.25;14.05;;;11.90;99.90;;;;;;5073334;28;20039;-58
2021/04/12 15:57:13;;;;;;;16.23;10.02;;;11.90;99.90;;;;;;5074107;28;20047;-58
2021/04/12 16:00:25;;;;;;;12.70;8.10;;;11.90;99.90;;;;;;5076792;28;20509;-59
2021/04/12 16:03:31;;;;;;;11.32;8.20;;;11.70;99.90;;;;;;5065012;28;20032;-56
2021/04/12 16:06:37;;;;;;;8.90;5.70;;;11.60;99.90;;;;;;5058757;28;20612;-57
2021/04/12 16:10:07;;;;;;;7.55;5.18;;;11.50;99.90;;;;;;5070676;28;20051;-58
2021/04/12 16:13:37;;;;;;;6.30;4.50;;;11.40;99.90;;;;;;5067782;28;20052;-60
2021/04/12 16:36:11;;;;;;;4.65;2.65;;;11.20;99.90;;;;;;5056352;28;20244;-61
2021/04/12 16:39:38;;;;;;;5.00;2.45;;;11.20;99.90;;;;;;5066027;28;20039;-59
2021/04/12 16:42:44;;;;;;;4.00;2.10;;;11.10;99.90;;;;;;5070622;28;20032;-58
2021/04/12 16:46:11;;;;;;;4.10;3.15;;;11.00;99.90;;;;;;5062184;28;20550;-59
2021/04/12 16:49:35;;;;;;;6.53;3.97;;;11.00;99.90;;;;;;5075835;28;20434;-59
2021/04/12 16:52:54;;;;;;;4.53;2.40;;;10.90;99.90;;;;;;5067489;28;20043;-54
2021/04/12 16:56:10;;;;;;;4.68;1.58;;;10.70;99.90;;;;;;5067714;28;20035;-58
2021/04/12 17:00:02;;;;;;;5.25;2.42;;;10.60;99.90;;;;;;5077412;28;20047;-61
2021/04/12 17:03:24;;;;;;;1.23;0.90;;;10.60;99.90;;;;;;5063292;28;20048;-61
2021/04/12 17:06:43;;;;;;;1.33;0.70;;;10.60;99.90;;;;;;5063214;28;20039;-58
2021/04/12 17:10:15;;;;;;;3.33;1.92;;;10.60;99.90;;;;;;5062437;28;20414;-59
2021/04/12 17:13:32;;;;;;;6.85;1.35;;;10.60;99.90;;;;;;5058092;28;20051;-57
2021/04/12 17:17:00;;;;;;;4.95;0.90;;;10.50;99.90;;;;;;5064265;28;20067;-57
2021/04/12 17:20:29;;;;;;;2.33;0.93;;;10.50;99.90;;;;;;5063812;28;20039;-59
2021/04/12 17:23:56;;;;;;;1.33;0.82;;;10.40;99.90;;;;;;5053235;28;20043;-58
2021/04/12 17:27:29;;;;;;;2.75;0.68;;;10.50;99.90;;;;;;5052212;28;20040;-58
2021/04/12 17:30:45;;;;;;;7.78;1.63;;;10.50;99.90;;;;;;5066083;28;20036;-60
2021/04/12 17:34:10;;;;;;;2.15;0.65;;;10.50;99.90;;;;;;5061916;28;20063;-60
2021/04/12 17:37:21;;;;;;;0.65;0.60;;;10.50;99.90;;;;;;5068096;28;20047;-60
2021/04/12 17:40:30;;;;;;;2.70;1.00;;;10.50;99.90;;;;;;5071628;28;20040;-60
2021/04/12 17:43:57;;;;;;;2.10;0.80;;;10.40;99.90;;;;;;5074288;28;20051;-61
2021/04/12 17:47:33;;;;;;;2.55;1.00;;;10.40;99.90;;;;;;5083382;28;20059;-60
2021/04/12 17:50:39;;;;;;;5.93;2.53;;;10.40;99.90;;;;;;5080076;28;20036;-58
2021/04/12 17:54:05;;;;;;;2.60;1.13;;;10.30;99.90;;;;;;5068577;28;20530;-60
2021/04/12 17:57:26;;;;;;;5.18;1.42;;;10.20;99.90;;;;;;5049926;28;20530;-59
2021/04/12 18:00:48;;;;;;;5.50;2.90;;;10.10;99.90;;;;;;5066466;28;20055;-62
2021/04/12 18:04:04;;;;;;;7.05;1.90;;;10.10;99.90;;;;;;5048797;28;20514;-62
2021/04/12 18:07:15;;;;;;;3.95;1.58;;;9.90;99.90;;;;;;5064356;28;20051;-61
2021/04/12 18:10:39;;;;;;;5.30;2.97;;;9.90;99.90;;;;;;5062757;28;20041;-62
2021/04/12 18:14:08;;;;;;;8.77;4.57;;;9.80;99.90;;;;;;5050791;28;20052;-62
2021/04/12 18:17:41;;;;;;;6.05;3.03;;;9.80;99.90;;;;;;5055037;28;20036;-58